sim
Sign-in with your pilot id or email,
or register
Callsign
Passwort

Schedule Details

Flight Number: OEO8503
Departure: Stuttgart Airport (EDDS) at 15:05
Arrival: Munich Airport (EDDM) at 16:15

Weather Information
Getting current METAR information for EDDS 260920Z 24013G24KT 180V310 9999 -RA FEW019 SCT030 BKN048 08/04 Q1000 NOSIG
Getting current METAR information for EDDM 260920Z 26022G32KT 9999 -DZRA SCT017 BKN025 08/04 Q1000 NOSIG

Schedule Frequency

Route Map